CheckWX is a tool to help pilots better visualize weather data.  It is not intended as a substitute for an official pre-flight weather briefing.

13:33:33 UTC

KJAX TAF
Jacksonville International Airport
Jacksonville, Florida, USA
KJAX 191120Z 1912/2012 28006KT P6SM FEW120 FM191600 27012G20KT P6SM FEW080 SCT120 FM192100 26007KT P6SM FEW060 FM200200 25003KT P6SM SKC

Nov-19@
12:00 UTC

Nov-19 @ 12:00 UTC

Nov-19@
16:00 UTC

Nov-19 @ 16:00 UTC

KJAX 191120Z 1912/2012 28006KT P6SM FEW120
Wind
  • 280° at 6 KTS
Cloud Levels
  • Few at 12,000' AGL

Nov-19@
16:00 UTC

Nov-19 @ 16:00 UTC

Nov-19@
21:00 UTC

Nov-19 @ 21:00 UTC

FM191600 27012G20KT P6SM FEW080 SCT120

From

From Standard forecast or significant change

Wind
  • 270° at 12 KTS
  • {Gusting to 20 KTS
Cloud Levels
  • Few at 8,000' AGL
  • Scattered at 12,000' AGL

Nov-19@
21:00 UTC

Nov-19 @ 21:00 UTC

Nov-20@
02:00 UTC

Nov-20 @ 02:00 UTC

FM192100 26007KT P6SM FEW060

From

From Standard forecast or significant change

Wind
  • 260° at 7 KTS
Cloud Levels
  • Few at 6,000' AGL

Nov-20@
02:00 UTC

Nov-20 @ 02:00 UTC

Nov-20@
12:00 UTC

Nov-20 @ 12:00 UTC

FM200200 25003KT P6SM SKC

From

From Standard forecast or significant change

Wind
  • 250° at 3 KTS
Cloud Levels
  • Clear skies